Time;durP1;ratioP1;P1;durP2;ratioP2;P2;SDS_P1;SDS_P2;PMS_P1;PMS_P2;Temp;Humidity;BMP_temperature;BMP_pressure;BME280_temperature;BME280_humidity;BME280_pressure;Samples;Min_cycle;Max_cycle;Signal;HPM_P1;HPM_P2
2022/05/10 00:01:56;;;;;;;16.20;5.00;;;;;;;10.80;44.20;99882.15;105559;1281;98452;-67
2022/05/10 00:04:27;;;;;;;14.70;4.90;;;;;;;10.78;44.20;99879.25;105358;1284;97928;-68
2022/05/10 00:06:57;;;;;;;16.20;5.30;;;;;;;10.76;44.20;99877.78;105537;1282;112056;-68
2022/05/10 00:09:29;;;;;;;14.90;5.50;;;;;;;10.72;44.31;99879.95;105524;1283;95393;-68
2022/05/10 00:12:00;;;;;;;11.80;4.70;;;;;;;10.70;44.42;99882.73;105427;1284;108526;-69
2022/05/10 00:14:29;;;;;;;15.00;5.00;;;;;;;10.68;44.48;99885.69;105517;1281;97895;-67
2022/05/10 00:16:57;;;;;;;12.10;4.50;;;;;;;10.64;44.42;99881.66;105503;1284;95707;-66
2022/05/10 00:19:30;;;;;;;12.50;4.60;;;;;;;10.62;44.46;99878.44;105283;1284;112017;-67
2022/05/10 00:21:59;;;;;;;12.00;4.90;;;;;;;10.58;44.59;99875.08;105500;1281;96458;-68
2022/05/10 00:24:27;;;;;;;10.10;4.20;;;;;;;10.56;44.61;99876.09;105528;1281;108446;-70
2022/05/10 00:26:55;;;;;;;11.00;4.10;;;;;;;10.54;44.71;99875.66;105467;1284;97988;-68
2022/05/10 00:29:25;;;;;;;13.80;4.90;;;;;;;10.53;44.69;99874.86;105528;1284;97965;-68
2022/05/10 00:31:54;;;;;;;9.00;3.90;;;;;;;10.51;44.71;99871.05;105515;1283;112024;-67
2022/05/10 00:34:28;;;;;;;13.90;4.30;;;;;;;10.49;44.76;99872.77;105563;1284;95222;-66
2022/05/10 00:37:00;;;;;;;11.30;4.30;;;;;;;10.47;44.77;99872.89;105456;1282;108329;-69
2022/05/10 00:39:29;;;;;;;12.20;4.40;;;;;;;10.45;44.87;99873.71;105495;1284;97915;-67
2022/05/10 00:42:27;;;;;;;10.60;4.60;;;;;;;10.43;44.85;99873.15;105516;1284;97895;-66
2022/05/10 00:45:09;;;;;;;13.30;4.10;;;;;;;10.39;45.02;99878.11;105454;1284;111671;-68
2022/05/10 00:47:52;;;;;;;13.50;4.70;;;;;;;10.36;45.07;99876.52;105266;1284;99180;-68
2022/05/10 00:50:34;;;;;;;15.30;5.00;;;;;;;10.33;45.21;99873.70;105493;1284;108042;-67
2022/05/10 00:53:09;;;;;;;12.70;4.80;;;;;;;10.29;45.19;99873.73;105422;1284;95321;-69
2022/05/10 00:55:44;;;;;;;13.40;4.90;;;;;;;10.26;45.36;99874.45;105505;1284;95243;-68
2022/05/10 00:58:24;;;;;;;14.30;4.90;;;;;;;10.24;45.25;99871.20;105373;1284;112066;-68
2022/05/10 01:00:58;;;;;;;15.90;5.00;;;;;;;10.22;45.37;99872.03;105377;1283;96382;-67
2022/05/10 01:04:00;;;;;;;13.80;4.50;;;;;;;10.20;45.43;99872.64;105431;1284;109203;-67
2022/05/10 01:06:37;;;;;;;13.80;5.30;;;;;;;10.18;45.48;99871.57;105490;1283;98124;-68
2022/05/10 01:09:30;;;;;;;17.70;4.80;;;;;;;10.16;45.50;99866.91;105565;1283;97985;-69
2022/05/10 01:12:06;;;;;;;13.50;4.90;;;;;;;10.13;45.48;99863.32;105508;1283;109865;-68
2022/05/10 01:14:59;;;;;;;15.80;5.00;;;;;;;10.11;45.55;99863.60;105559;1284;96281;-69
2022/05/10 01:17:29;;;;;;;11.20;4.50;;;;;;;10.10;45.61;99864.35;105558;1284;109575;-67
2022/05/10 01:19:57;;;;;;;11.30;4.50;;;;;;;10.11;45.67;99864.52;105535;1284;97897;-71
2022/05/10 01:23:00;;;;;;;10.30;4.40;;;;;;;10.09;45.57;99859.29;105553;1284;97896;-68
2022/05/10 01:25:37;;;;;;;11.30;4.70;;;;;;;10.09;45.67;99862.53;105551;1284;111475;-69
2022/05/10 01:28:32;;;;;;;12.50;4.40;;;;;;;10.07;45.71;99860.27;105389;1284;97784;-68
2022/05/10 01:31:15;;;;;;;12.90;4.60;;;;;;;10.06;45.70;99860.39;105527;1284;108363;-68
2022/05/10 01:33:55;;;;;;;11.20;3.70;;;;;;;10.04;45.76;99856.56;105587;1284;97925;-68
2022/05/10 01:36:45;;;;;;;13.70;4.40;;;;;;;10.02;45.76;99855.97;105591;1284;97895;-67
2022/05/10 01:39:42;;;;;;;13.20;4.40;;;;;;;10.01;45.81;99853.02;105598;1284;109635;-67
2022/05/10 01:42:10;;;;;;;8.20;3.80;;;;;;;9.99;45.83;99849.95;105565;1283;97199;-69
2022/05/10 01:44:44;;;;;;;14.20;4.50;;;;;;;9.97;45.74;99847.95;105580;1284;107826;-66
2022/05/10 01:47:39;;;;;;;9.60;4.10;;;;;;;9.95;45.84;99850.38;105639;1283;98037;-66
2022/05/10 01:50:19;;;;;;;14.80;4.80;;;;;;;9.93;45.93;99845.00;105554;1284;97051;-68
2022/05/10 01:53:01;;;;;;;11.10;4.00;;;;;;;9.90;45.91;99842.17;105427;1284;111891;-68
2022/05/10 01:55:33;;;;;;;10.10;4.00;;;;;;;9.87;45.95;99839.84;105459;1284;97903;-67
2022/05/10 01:58:24;;;;;;;12.50;4.20;;;;;;;9.84;45.92;99835.76;105445;1284;108345;-67
2022/05/10 02:00:57;;;;;;;10.80;4.30;;;;;;;9.80;45.97;99836.86;105524;1284;97912;-69
2022/05/10 02:03:35;;;;;;;15.60;4.40;;;;;;;9.78;46.11;99836.23;105620;1283;97999;-68
2022/05/10 02:06:23;;;;;;;11.90;3.80;;;;;;;9.75;46.09;99833.59;105541;1284;111254;-66
2022/05/10 02:09:30;;;;;;;14.20;5.00;;;;;;;9.71;46.04;99835.77;105540;1283;96472;-68
2022/05/10 02:12:20;;;;;;;10.60;4.00;;;;;;;9.65;46.17;99831.16;104901;1287;108413;-67
2022/05/10 02:15:01;;;;;;;9.90;4.10;;;;;;;9.60;46.28;99830.70;105514;1284;96375;-65
2022/05/10 02:17:39;;;;;;;9.40;4.20;;;;;;;9.58;46.38;99825.87;105567;1283;96378;-67
2022/05/10 02:20:20;;;;;;;11.20;4.30;;;;;;;9.54;46.42;99826.64;105629;1283;111998;-67
2022/05/10 02:23:02;;;;;;;13.80;5.00;;;;;;;9.50;46.42;99828.08;105524;1284;96326;-67
2022/05/10 02:25:47;;;;;;;13.80;4.90;;;;;;;9.47;46.54;99823.68;105438;1284;107391;-65
2022/05/10 02:28:42;;;;;;;13.70;4.70;;;;;;;9.42;46.43;99823.42;105508;1284;97982;-66
2022/05/10 02:33:06;;;;;;;12.20;4.40;;;;;;;9.36;46.58;99817.71;105483;1284;97963;-68
2022/05/10 02:34:26;;;;;;;12.80;4.90;;;;;;;9.29;46.58;99816.86;105459;1284;111944;-67
2022/05/10 02:36:54;;;;;;;9.40;4.50;;;;;;;9.23;46.58;99814.69;105511;1284;97909;-67
2022/05/10 02:39:24;;;;;;;11.80;4.40;;;;;;;9.19;46.66;99813.31;105545;1284;108395;-68
2022/05/10 02:41:53;;;;;;;12.70;4.30;;;;;;;9.13;46.66;99811.89;105552;1284;97929;-67
2022/05/10 02:44:21;;;;;;;11.80;4.40;;;;;;;9.07;46.71;99815.39;105542;1284;97895;-67
2022/05/10 02:46:51;;;;;;;15.00;5.00;;;;;;;9.04;46.75;99815.73;105491;1284;110547;-68
2022/05/10 02:49:23;;;;;;;12.90;4.40;;;;;;;9.00;46.83;99817.38;105523;1283;97963;-68
2022/05/10 02:51:50;;;;;;;13.40;4.90;;;;;;;8.95;46.91;99817.65;105536;1284;108084;-68
2022/05/10 02:54:18;;;;;;;12.30;4.70;;;;;;;8.91;46.84;99813.78;105415;1284;98603;-68
2022/05/10 02:56:48;;;;;;;15.20;4.90;;;;;;;8.85;46.96;99815.17;105561;1284;97906;-67
2022/05/10 02:59:29;;;;;;;13.60;4.80;;;;;;;8.79;47.04;99817.09;105564;1284;111421;-67
2022/05/10 03:02:20;;;;;;;13.70;4.50;;;;;;;8.72;47.25;99812.34;105558;1283;98025;-66
2022/05/10 03:04:58;;;;;;;16.10;5.10;;;;;;;8.64;47.33;99813.06;105436;1284;108227;-66
2022/05/10 03:07:29;;;;;;;11.50;5.10;;;;;;;8.59;47.33;99808.75;105445;1284;97919;-69
2022/05/10 03:09:58;;;;;;;15.80;4.80;;;;;;;8.52;47.35;99808.56;105479;1284;97892;-69
2022/05/10 03:12:28;;;;;;;11.60;4.30;;;;;;;8.46;47.42;99808.17;105560;1284;111547;-68
2022/05/10 03:14:57;;;;;;;11.30;4.80;;;;;;;8.42;47.51;99808.55;105534;1283;97943;-68
2022/05/10 03:17:26;;;;;;;12.50;4.80;;;;;;;8.39;47.42;99806.77;105494;1283;106543;-68
2022/05/10 03:19:54;;;;;;;14.90;4.80;;;;;;;8.36;47.66;99808.50;105429;1284;97968;-68
2022/05/10 03:22:25;;;;;;;15.90;6.10;;;;;;;8.33;47.71;99813.95;105472;1284;97921;-69
2022/05/10 03:24:53;;;;;;;13.10;5.20;;;;;;;8.31;47.61;99813.34;105471;1283;112121;-68
2022/05/10 03:27:28;;;;;;;17.50;5.60;;;;;;;8.28;47.68;99816.30;105588;1283;95344;-69
2022/05/10 03:29:57;;;;;;;14.80;5.40;;;;;;;8.27;47.83;99817.45;105094;1284;108433;-69
2022/05/10 03:32:25;;;;;;;14.50;5.10;;;;;;;8.24;47.84;99816.16;105438;1283;97955;-68
2022/05/10 03:34:57;;;;;;;15.10;5.40;;;;;;;8.22;47.91;99814.85;105453;1284;95331;-70
2022/05/10 03:37:32;;;;;;;15.80;5.10;;;;;;;8.20;47.78;99809.28;105166;1283;111241;-71
2022/05/10 03:39:59;;;;;;;14.40;5.20;;;;;;;8.19;47.96;99809.53;105470;1283;97759;-69
2022/05/10 03:42:27;;;;;;;16.00;5.40;;;;;;;8.18;48.14;99813.80;105420;1284;106818;-68
2022/05/10 03:44:56;;;;;;;14.40;5.30;;;;;;;8.17;47.96;99808.02;104838;1284;863413;-68
2022/05/10 03:47:30;;;;;;;15.60;5.50;;;;;;;8.17;48.06;99805.52;105346;1284;97960;-67
2022/05/10 03:49:58;;;;;;;18.10;5.40;;;;;;;8.19;48.24;99809.01;105466;1284;111404;-67
2022/05/10 03:52:27;;;;;;;16.90;5.60;;;;;;;8.20;48.17;99805.22;105569;1283;97952;-69
2022/05/10 03:54:57;;;;;;;15.50;5.30;;;;;;;8.22;48.23;99807.44;105610;1283;107782;-65
2022/05/10 03:57:25;;;;;;;18.10;6.00;;;;;;;8.23;48.24;99804.59;105371;1284;96455;-67
2022/05/10 03:59:53;;;;;;;14.60;5.30;;;;;;;8.25;48.52;99803.23;105494;1284;97912;-67
2022/05/10 04:02:21;;;;;;;17.20;5.60;;;;;;;8.26;48.42;99800.36;105565;1284;110877;-68
2022/05/10 04:04:52;;;;;;;15.40;5.00;;;;;;;8.28;48.47;99797.09;105567;1283;95196;-67
2022/05/10 04:07:23;;;;;;;14.60;4.90;;;;;;;8.30;48.69;99796.27;105620;1283;108368;-67
2022/05/10 04:09:50;;;;;;;17.20;4.80;;;;;;;8.32;48.63;99794.21;105660;1283;97922;-68
2022/05/10 04:12:18;;;;;;;15.20;5.20;;;;;;;8.34;48.70;99794.10;105614;1283;97897;-67
2022/05/10 04:14:46;;;;;;;15.60;4.90;;;;;;;8.37;48.52;99791.30;105622;1283;111991;-72
2022/05/10 04:17:14;;;;;;;14.60;4.80;;;;;;;8.40;48.78;99789.02;105497;1284;97842;-68
2022/05/10 04:19:42;;;;;;;13.10;4.60;;;;;;;8.43;48.62;99785.67;105460;1284;107735;-69
2022/05/10 04:22:12;;;;;;;15.80;5.10;;;;;;;8.46;48.72;99785.88;105569;1283;97963;-67
2022/05/10 04:24:40;;;;;;;15.30;5.80;;;;;;;8.50;48.86;99791.02;105566;1283;97187;-70
2022/05/10 04:27:11;;;;;;;14.70;5.10;;;;;;;8.54;48.87;99794.02;105573;1283;112195;-69
2022/05/10 04:29:40;;;;;;;13.00;5.30;;;;;;;8.57;49.02;99790.80;105617;1283;98120;-67
2022/05/10 04:32:09;;;;;;;19.00;5.30;;;;;;;8.61;48.97;99792.89;105622;1283;108945;-68
2022/05/10 04:34:42;;;;;;;9.30;3.90;;;;;;;8.67;48.94;99790.85;105613;1283;97874;-67
2022/05/10 04:37:10;;;;;;;13.60;4.50;;;;;;;8.72;49.08;99788.43;105591;1283;95312;-68
2022/05/10 04:42:25;;;;;;;11.70;4.40;;;;;;;8.85;49.14;99789.89;105285;1284;96513;-68
2022/05/10 04:44:53;;;;;;;12.90;4.60;;;;;;;8.91;48.97;99791.88;105465;1284;108457;-68
2022/05/10 04:47:29;;;;;;;11.50;4.00;;;;;;;8.98;49.01;99788.46;105605;1284;97976;-70
2022/05/10 04:49:57;;;;;;;12.20;3.90;;;;;;;9.03;49.03;99791.34;105692;1283;96999;-67
2022/05/10 04:52:25;;;;;;;13.60;4.00;;;;;;;9.10;49.01;99790.66;105680;1283;111970;-66
2022/05/10 04:54:55;;;;;;;10.10;3.80;;;;;;;9.15;49.07;99790.72;105707;1283;95217;-68
2022/05/10 04:57:23;;;;;;;9.90;4.20;;;;;;;9.21;49.09;99788.64;105564;1283;108413;-67
2022/05/10 04:59:51;;;;;;;11.20;3.90;;;;;;;9.26;48.92;99787.84;105479;1283;97800;-68
2022/05/10 05:02:19;;;;;;;10.40;4.00;;;;;;;9.31;48.99;99787.20;105558;1283;97836;-68
2022/05/10 05:04:49;;;;;;;10.90;3.80;;;;;;;9.36;49.07;99790.09;105406;1284;112965;-67
2022/05/10 05:07:18;;;;;;;11.40;4.30;;;;;;;9.41;49.11;99787.33;105488;1284;95408;-68
2022/05/10 05:09:46;;;;;;;13.90;4.20;;;;;;;9.46;49.18;99786.19;105276;1284;108581;-68
2022/05/10 05:12:14;;;;;;;16.00;4.60;;;;;;;9.52;49.24;99788.83;105601;1284;97890;-69
2022/05/10 05:14:42;;;;;;;12.60;4.10;;;;;;;9.58;49.19;99791.89;105639;1284;97739;-70
2022/05/10 05:17:10;;;;;;;12.60;4.60;;;;;;;9.63;49.34;99791.58;105453;1283;112447;-70
2022/05/10 05:19:38;;;;;;;14.10;4.60;;;;;;;9.67;49.26;99794.36;105421;1284;97921;-68
2022/05/10 05:22:08;;;;;;;16.90;4.80;;;;;;;9.73;49.34;99789.81;105498;1283;108319;-68
2022/05/10 05:24:36;;;;;;;13.70;4.50;;;;;;;9.78;49.29;99789.13;105381;1284;98578;-68
2022/05/10 05:27:06;;;;;;;13.50;4.20;;;;;;;9.82;49.39;99788.17;105392;1284;96350;-68
2022/05/10 05:29:34;;;;;;;13.00;4.40;;;;;;;9.88;49.32;99794.95;105476;1283;111955;-68
2022/05/10 05:32:29;;;;;;;13.90;4.10;;;;;;;9.93;49.43;99794.67;105608;1284;97913;-67
2022/05/10 05:34:59;;;;;;;14.40;4.40;;;;;;;9.98;49.36;99789.23;105556;1283;108628;-67
2022/05/10 05:37:33;;;;;;;13.40;4.40;;;;;;;10.05;49.50;99794.02;105515;1283;98483;-68
2022/05/10 05:40:16;;;;;;;15.60;4.20;;;;;;;10.10;49.50;99794.21;105512;1284;97919;-68
2022/05/10 05:42:51;;;;;;;17.50;4.70;;;;;;;10.16;49.62;99801.30;105519;1283;111971;-68
2022/05/10 05:45:24;;;;;;;9.90;4.10;;;;;;;10.22;49.59;99800.21;105574;1284;97880;-69
2022/05/10 05:47:55;;;;;;;12.10;4.60;;;;;;;10.28;49.59;99798.98;105645;1282;108742;-67
2022/05/10 05:50:26;;;;;;;16.60;4.70;;;;;;;10.34;49.53;99795.48;105546;1283;97891;-69
2022/05/10 05:52:58;;;;;;;14.40;4.20;;;;;;;10.39;49.54;99790.90;105617;1283;98003;-67
2022/05/10 05:55:28;;;;;;;9.50;4.20;;;;;;;10.45;49.55;99794.27;105514;1283;111981;-66
2022/05/10 05:57:57;;;;;;;11.50;4.60;;;;;;;10.51;49.58;99795.39;105454;1283;97928;-70
2022/05/10 06:00:28;;;;;;;13.20;4.30;;;;;;;10.56;49.61;99800.35;105364;1284;108469;-68
2022/05/10 06:02:58;;;;;;;16.10;4.40;;;;;;;10.62;49.67;99797.87;105423;1283;97979;-69
2022/05/10 06:05:28;;;;;;;11.40;4.40;;;;;;;10.69;49.66;99802.40;105483;1283;97896;-68
2022/05/10 06:08:03;;;;;;;10.90;4.00;;;;;;;10.75;49.72;99801.33;105529;1283;112159;-68
2022/05/10 06:10:32;;;;;;;16.00;4.80;;;;;;;10.82;49.68;99800.57;105542;1283;97919;-69
2022/05/10 06:13:03;;;;;;;10.10;4.40;;;;;;;10.89;49.73;99799.10;105579;1282;108409;-69
2022/05/10 06:15:31;;;;;;;11.00;3.80;;;;;;;10.95;49.75;99794.25;105569;1283;98013;-70
2022/05/10 06:18:04;;;;;;;9.90;3.50;;;;;;;11.01;49.83;99796.35;105448;1283;97866;-68
2022/05/10 06:20:33;;;;;;;8.50;4.10;;;;;;;11.08;49.66;99796.30;105504;1283;111422;-68
2022/05/10 06:23:03;;;;;;;11.40;4.10;;;;;;;11.14;49.70;99792.34;105543;1284;98617;-68
2022/05/10 06:25:36;;;;;;;11.80;4.60;;;;;;;11.22;49.81;99794.69;105540;1283;108477;-68
2022/05/10 06:28:04;;;;;;;12.10;3.70;;;;;;;11.30;49.62;99790.13;105568;1283;96384;-69
2022/05/10 06:30:33;;;;;;;12.10;3.90;;;;;;;11.36;49.67;99796.30;105361;1283;97919;-70
2022/05/10 06:33:01;;;;;;;12.90;3.90;;;;;;;11.44;49.77;99796.52;105444;1283;111805;-68
2022/05/10 06:35:31;;;;;;;11.00;3.50;;;;;;;11.53;49.73;99797.56;105369;1283;97954;-69
2022/05/10 06:38:27;;;;;;;11.10;3.70;;;;;;;11.60;49.76;99797.91;105464;1283;107816;-68
2022/05/10 06:40:57;;;;;;;9.60;3.50;;;;;;;11.69;49.75;99800.05;105411;1283;96483;-69
2022/05/10 06:43:35;;;;;;;11.50;3.60;;;;;;;11.77;49.83;99790.99;105438;1283;95337;-67
2022/05/10 06:46:09;;;;;;;10.60;3.80;;;;;;;11.87;49.88;99795.30;105434;1283;111428;-66
2022/05/10 06:48:39;;;;;;;12.90;3.80;;;;;;;11.95;49.74;99794.77;105416;1283;96576;-68
2022/05/10 06:51:09;;;;;;;14.70;3.90;;;;;;;12.03;49.72;99793.20;105465;1283;107681;-69
2022/05/10 06:53:38;;;;;;;9.20;3.50;;;;;;;12.12;49.63;99794.73;105602;1284;95222;-68
2022/05/10 06:56:09;;;;;;;9.60;3.70;;;;;;;12.22;49.77;99794.04;105448;1283;97996;-67
2022/05/10 06:58:39;;;;;;;15.70;3.90;;;;;;;12.35;49.91;99792.84;105417;1283;111363;-69
2022/05/10 07:01:11;;;;;;;16.10;4.50;;;;;;;12.58;49.61;99785.73;105438;1283;97609;-68
2022/05/10 07:03:46;;;;;;;20.10;5.30;;;;;;;14.29;48.01;99780.59;105395;1284;107875;-69
2022/05/10 07:06:19;;;;;;;13.80;3.90;;;;;;;16.77;47.15;99776.48;105407;1283;95391;-69
2022/05/10 07:08:47;;;;;;;;;;;;;;;19.21;47.10;99770.29;105457;1282;97889;-69
2022/05/10 07:11:16;;;;;;;12.50;3.60;;;;;;;21.38;46.35;99763.29;105554;1283;111992;-68
2022/05/10 07:13:44;;;;;;;9.00;3.50;;;;;;;23.43;46.26;99759.11;105517;1283;97999;-69
2022/05/10 07:16:12;;;;;;;14.60;3.90;;;;;;;25.28;45.78;99759.24;105443;1283;108301;-69
2022/05/10 07:18:41;;;;;;;15.20;3.40;;;;;;;27.05;45.33;99755.98;105516;1283;97915;-69
2022/05/10 07:21:10;;;;;;;10.30;3.40;;;;;;;28.66;45.06;99757.02;105364;1281;95261;-69
2022/05/10 07:23:39;;;;;;;19.80;3.90;;;;;;;30.11;44.52;99753.43;105532;1283;112127;-70
2022/05/10 07:26:08;;;;;;;13.50;3.40;;;;;;;31.39;44.36;99757.26;105606;1282;95694;-69
2022/05/10 07:28:37;;;;;;;9.60;3.30;;;;;;;32.27;42.77;99755.40;105469;1283;108490;-69
2022/05/10 07:31:15;;;;;;;8.90;3.20;;;;;;;32.89;42.54;99752.24;105506;1283;95328;-68
2022/05/10 07:33:45;;;;;;;10.20;3.20;;;;;;;33.49;42.19;99753.52;105435;1283;96366;-68
2022/05/10 07:36:25;;;;;;;11.30;2.90;;;;;;;34.31;42.45;99754.98;105449;1282;112031;-68
2022/05/10 07:38:53;;;;;;;6.70;2.90;;;;;;;35.34;41.46;99754.85;105510;1282;98069;-69
2022/05/10 07:41:22;;;;;;;13.00;3.10;;;;;;;36.11;40.90;99756.83;105436;1282;108392;-69
2022/05/10 07:43:53;;;;;;;7.30;2.70;;;;;;;36.63;40.58;99753.55;105543;1283;97922;-69
2022/05/10 07:46:21;;;;;;;6.10;2.90;;;;;;;37.38;39.93;99750.66;105195;1283;95227;-69
2022/05/10 07:48:51;;;;;;;10.50;3.20;;;;;;;38.00;39.41;99748.87;105470;1283;112490;-69
2022/05/10 07:51:21;;;;;;;7.30;2.80;;;;;;;38.52;38.88;99750.05;105321;1284;98424;-70
2022/05/10 07:53:49;;;;;;;8.20;3.20;;;;;;;37.95;36.97;99752.06;105303;1284;108243;-69
2022/05/10 07:56:18;;;;;;;10.10;3.00;;;;;;;37.86;37.25;99750.64;105462;1283;98030;-70
2022/05/10 07:58:55;;;;;;;7.80;2.70;;;;;;;38.43;36.82;99748.17;105983;1283;95325;-70
2022/05/10 08:01:26;;;;;;;7.70;3.20;;;;;;;38.98;36.29;99748.09;105509;1283;113693;-70
2022/05/10 08:03:59;;;;;;;6.00;2.80;;;;;;;39.56;35.60;99749.80;105511;1283;98909;-70
2022/05/10 08:06:28;;;;;;;8.10;3.30;;;;;;;40.02;35.13;99747.95;105401;1283;107764;-70
2022/05/10 08:08:56;;;;;;;8.90;3.00;;;;;;;40.23;34.68;99747.17;105299;1283;97995;-69
2022/05/10 08:11:24;;;;;;;7.00;3.00;;;;;;;40.35;34.11;99746.62;105256;1283;97893;-68
2022/05/10 08:13:54;;;;;;;8.50;2.90;;;;;;;40.20;33.27;99750.14;105427;1282;111796;-70
2022/05/10 08:16:21;;;;;;;14.80;3.50;;;;;;;40.24;32.97;99746.48;105482;1283;98005;-69
2022/05/10 08:18:49;;;;;;;9.20;3.40;;;;;;;40.56;32.61;99744.60;105567;1283;107727;-69
2022/05/10 08:21:17;;;;;;;10.50;2.90;;;;;;;40.72;32.16;99744.39;105488;1283;97887;-70
2022/05/10 08:23:47;;;;;;;5.80;2.70;;;;;;;40.71;31.40;99739.10;105575;1282;95954;-69
2022/05/10 08:26:15;;;;;;;5.00;2.70;;;;;;;40.87;31.27;99736.05;105349;1283;111438;-70
2022/05/10 08:28:43;;;;;;;8.90;3.00;;;;;;;40.52;30.21;99737.96;105373;1284;97703;-70
2022/05/10 08:31:13;;;;;;;12.40;2.90;;;;;;;40.32;30.22;99733.55;105438;1283;107744;-69
2022/05/10 08:33:43;;;;;;;11.10;3.30;;;;;;;40.44;29.57;99734.70;105596;1282;96394;-68
2022/05/10 08:36:11;;;;;;;6.50;2.80;;;;;;;40.47;29.45;99733.16;105582;1283;98033;-70
2022/05/10 08:38:40;;;;;;;9.70;3.00;;;;;;;40.37;28.87;99729.87;105574;1283;111933;-69
2022/05/10 08:41:40;;;;;;;11.50;2.90;;;;;;;40.51;28.76;99725.55;105584;1283;97742;-69
2022/05/10 08:44:17;;;;;;;9.20;2.40;;;;;;;40.71;28.04;99729.79;105421;1283;107328;-69
2022/05/10 08:46:53;;;;;;;6.10;2.60;;;;;;;40.87;27.55;99727.24;105320;1284;97928;-70
2022/05/10 08:49:37;;;;;;;8.60;2.80;;;;;;;40.77;27.00;99725.35;105190;1283;95437;-69
2022/05/10 08:52:06;;;;;;;6.80;2.80;;;;;;;39.22;25.70;99725.02;105449;1284;111820;-69
2022/05/10 08:54:38;;;;;;;3.90;2.40;;;;;;;38.82;26.41;99719.56;105504;1283;97913;-69
2022/05/10 08:57:26;;;;;;;7.50;2.50;;;;;;;38.93;25.87;99713.86;105532;1283;107785;-69
2022/05/10 09:00:17;;;;;;;6.70;2.40;;;;;;;38.87;25.71;99716.45;105484;1283;98005;-70
2022/05/10 09:02:51;;;;;;;9.90;2.60;;;;;;;38.40;25.00;99724.95;106329;1283;97977;-69
2022/05/10 09:05:19;;;;;;;6.30;2.10;;;;;;;38.50;25.18;99722.27;105348;1283;111545;-68
2022/05/10 09:08:05;;;;;;;6.10;2.20;;;;;;;38.70;24.85;99723.11;105581;1281;97306;-70
2022/05/10 09:10:44;;;;;;;8.50;2.30;;;;;;;38.97;24.66;99718.50;105427;1283;107902;-69
2022/05/10 09:13:16;;;;;;;7.00;2.40;;;;;;;39.25;24.34;99717.36;105555;1283;98018;-70
2022/05/10 09:15:59;;;;;;;6.40;2.40;;;;;;;39.34;24.01;99713.38;105507;1283;97799;-69
2022/05/10 09:18:41;;;;;;;7.70;2.40;;;;;;;39.38;24.00;99715.57;105467;1283;111223;-70
2022/05/10 09:21:13;;;;;;;6.70;2.30;;;;;;;39.42;23.69;99713.98;105505;1283;98430;-71
2022/05/10 09:24:08;;;;;;;6.10;2.30;;;;;;;39.37;23.25;99715.23;105387;1283;107747;-70
2022/05/10 09:26:42;;;;;;;11.10;3.00;;;;;;;39.30;23.48;99710.27;105257;1282;97950;-70
2022/05/10 09:29:33;;;;;;;4.60;2.20;;;;;;;39.12;22.87;99711.70;105308;1283;96176;-70
2022/05/10 09:35:17;;;;;;;8.90;2.30;;;;;;;38.32;22.59;99701.74;105234;1283;98370;-70
2022/05/10 09:37:53;;;;;;;7.80;2.20;;;;;;;38.24;22.26;99692.98;105275;1283;105984;-70
2022/05/10 09:40:34;;;;;;;18.20;3.00;;;;;;;37.86;22.24;99690.17;105254;1283;97982;-68
2022/05/10 09:43:17;;;;;;;8.50;2.50;;;;;;;37.59;21.96;99686.23;105447;1283;97983;-70
2022/05/10 09:46:23;;;;;;;8.50;2.20;;;;;;;37.53;21.71;99681.41;105392;1282;112111;-68
2022/05/10 09:48:52;;;;;;;7.60;2.70;;;;;;;37.47;21.34;99678.06;105444;1284;97722;-69
2022/05/10 09:51:40;;;;;;;5.50;2.20;;;;;;;37.13;21.35;99676.16;105339;1283;107507;-69
2022/05/10 09:54:21;;;;;;;5.90;2.40;;;;;;;36.89;21.20;99675.74;105258;1283;99045;-69
2022/05/10 09:56:58;;;;;;;9.40;2.20;;;;;;;36.73;21.34;99675.18;105390;1282;97889;-70
2022/05/10 09:59:28;;;;;;;4.30;1.70;;;;;;;36.13;20.78;99672.05;105428;1282;112104;-68
2022/05/10 10:02:03;;;;;;;8.00;2.40;;;;;;;35.09;20.94;99667.41;105485;1283;96312;-69
2022/05/10 10:04:40;;;;;;;8.70;2.60;;;;;;;34.28;21.11;99668.20;105167;1283;108020;-69
2022/05/10 10:07:21;;;;;;;9.50;2.40;;;;;;;33.57;20.74;99665.74;105243;1284;96683;-68
2022/05/10 10:09:55;;;;;;;10.60;2.40;;;;;;;32.99;20.92;99664.02;105551;1282;98570;-69
2022/05/10 10:12:45;;;;;;;5.70;2.30;;;;;;;32.40;20.69;99661.23;105219;1282;112494;-69
2022/05/10 10:15:35;;;;;;;8.70;2.30;;;;;;;31.89;20.67;99652.56;105063;1283;97915;-69
2022/05/10 10:18:08;;;;;;;5.90;2.10;;;;;;;31.44;20.55;99648.19;104921;1284;108350;-69
2022/05/10 10:20:50;;;;;;;7.70;2.40;;;;;;;30.90;20.39;99647.49;104941;1283;97894;-68
2022/05/10 10:23:33;;;;;;;7.10;2.10;;;;;;;30.45;20.63;99650.48;106497;1283;96642;-68
2022/05/10 10:26:25;;;;;;;9.20;2.40;;;;;;;30.02;20.56;99647.66;106520;1282;111897;-69
2022/05/10 10:28:58;;;;;;;7.10;2.20;;;;;;;29.52;20.02;99648.36;105321;1283;98362;-71
2022/05/10 10:31:33;;;;;;;10.90;2.50;;;;;;;28.96;20.16;99648.85;105446;1283;107767;-70
2022/05/10 10:34:07;;;;;;;5.60;1.90;;;;;;;28.58;20.32;99647.60;105552;1283;97965;-69
2022/05/10 10:36:51;;;;;;;7.80;2.20;;;;;;;28.33;20.30;99645.73;105607;1283;96619;-69
2022/05/10 10:39:38;;;;;;;3.10;1.70;;;;;;;28.05;20.63;99643.88;105522;1283;111383;-69
2022/05/10 10:42:22;;;;;;;4.30;2.20;;;;;;;27.75;20.33;99635.45;105517;1283;97891;-68
2022/05/10 10:45:00;;;;;;;6.50;2.10;;;;;;;27.22;20.12;99636.55;105514;1282;107841;-69
2022/05/10 10:47:44;;;;;;;5.60;2.40;;;;;;;26.91;20.33;99634.67;105617;1283;97808;-69
2022/05/10 10:50:26;;;;;;;8.90;2.50;;;;;;;26.75;20.35;99630.67;105582;1282;99311;-69
2022/05/10 10:53:01;;;;;;;5.70;2.40;;;;;;;26.70;20.50;99621.72;105559;1283;111442;-70
2022/05/10 10:55:42;;;;;;;;;;;;;;;26.62;20.41;99624.83;105489;1282;97909;-68
2022/05/10 10:58:36;;;;;;;15.60;5.30;;;;;;;26.32;20.34;99619.53;105544;1283;108276;-70
2022/05/10 11:01:20;;;;;;;11.00;3.20;;;;;;;26.22;20.81;99619.84;105346;1281;97861;-71
2022/05/10 11:04:26;;;;;;;4.60;1.80;;;;;;;26.13;20.78;99613.88;105351;1283;97906;-68
2022/05/10 11:06:54;;;;;;;11.50;2.10;;;;;;;26.04;20.88;99605.41;105392;1283;112049;-70
2022/05/10 11:09:42;;;;;;;7.40;2.90;;;;;;;26.04;20.87;99605.46;105239;1283;98708;-70
2022/05/10 11:12:34;;;;;;;7.10;2.70;;;;;;;25.92;20.86;99609.61;105264;1283;107187;-69
2022/05/10 11:15:29;;;;;;;4.40;2.10;;;;;;;25.47;20.49;99607.70;105537;1283;97983;-68
2022/05/10 11:18:20;;;;;;;3.90;1.50;;;;;;;24.99;20.72;99609.70;105517;1283;96385;-68
2022/05/10 11:20:56;;;;;;;5.00;2.20;;;;;;;24.95;21.09;99602.16;105612;1282;112231;-69
2022/05/10 11:23:56;;;;;;;12.00;2.50;;;;;;;24.96;21.08;99607.94;105660;1283;95460;-68
2022/05/10 11:27:02;;;;;;;6.30;2.40;;;;;;;24.94;20.95;99601.46;105684;1281;108424;-67
2022/05/10 11:29:58;;;;;;;7.80;2.30;;;;;;;24.85;21.04;99593.13;105474;1282;97743;-69
2022/05/10 11:32:44;;;;;;;7.90;2.00;;;;;;;24.79;21.09;99590.46;105522;1283;96308;-68
2022/05/10 11:35:17;;;;;;;7.50;2.50;;;;;;;24.70;21.28;99590.84;105506;1283;113372;-69
2022/05/10 11:38:25;;;;;;;6.20;2.30;;;;;;;24.65;21.19;99590.99;105491;1283;97922;-69
2022/05/10 11:40:59;;;;;;;5.90;2.40;;;;;;;24.60;21.15;99585.52;105516;1282;107917;-69
2022/05/10 11:44:02;;;;;;;11.60;3.10;;;;;;;24.48;21.14;99586.17;105549;1283;97071;-67
2022/05/10 11:47:00;;;;;;;4.40;2.50;;;;;;;24.46;21.51;99578.73;105307;1284;95270;-69
2022/05/10 11:49:54;;;;;;;4.30;2.60;;;;;;;24.39;21.74;99568.71;105246;1282;112044;-69
2022/05/10 11:52:54;;;;;;;9.70;3.00;;;;;;;24.44;21.89;99570.99;105423;1282;97973;-67
2022/05/10 11:55:36;;;;;;;6.70;2.70;;;;;;;24.48;21.75;99567.93;105323;1283;107766;-69
2022/05/10 11:58:10;;;;;;;;;;;;;;;24.47;21.73;99565.08;105487;1284;96348;-68
2022/05/10 12:00:56;;;;;;;6.40;2.40;;;;;;;24.42;21.85;99563.02;105520;1283;98330;-67
2022/05/10 12:03:36;;;;;;;8.90;2.40;;;;;;;24.39;22.10;99557.84;105462;1283;112081;-70
2022/05/10 12:06:22;;;;;;;27.40;13.80;;;;;;;24.39;22.15;99556.67;105539;1283;97933;-69